createdAt,value
2019-02-10T00:00:09.936Z,101008.88
2019-02-10T00:00:47.542Z,101004.28
2019-02-10T00:01:25.972Z,101011.28
2019-02-10T00:02:02.235Z,101010.20
2019-02-10T00:02:38.588Z,101012.90
2019-02-10T00:03:14.706Z,101014.77
2019-02-10T00:03:50.714Z,101012.88
2019-02-10T00:04:26.879Z,101016.38
2019-02-10T00:05:03.063Z,101018.26
2019-02-10T00:05:39.238Z,101017.17
2019-02-10T00:06:15.376Z,101017.44
2019-02-10T00:06:51.512Z,101020.39
2019-02-10T00:07:27.623Z,101019.59
2019-02-10T00:08:03.749Z,101022.56
2019-02-10T00:08:39.853Z,101020.39
2019-02-10T00:09:15.842Z,101024.70
2019-02-10T00:09:52.067Z,101022.52
2019-02-10T00:10:28.174Z,101021.44
2019-02-10T00:11:04.453Z,101025.20
2019-02-10T00:11:40.769Z,101028.70
2019-02-10T00:12:17.092Z,101025.76
2019-02-10T00:13:28.976Z,101028.44
2019-02-10T00:14:05.126Z,101026.55
2019-02-10T00:14:41.363Z,101028.96
2019-02-10T00:15:17.521Z,101033.01
2019-02-10T00:15:53.785Z,101030.03
2019-02-10T00:16:29.956Z,101036.23
2019-02-10T00:17:05.955Z,101030.55
2019-02-10T00:17:42.117Z,101035.41
2019-02-10T00:18:18.247Z,101039.46
2019-02-10T00:18:54.495Z,101043.23
2019-02-10T00:19:30.615Z,101043.75
2019-02-10T00:20:06.783Z,101044.02
2019-02-10T00:20:42.947Z,101046.15
2019-02-10T00:21:19.397Z,101042.36
2019-02-10T00:21:55.649Z,101042.08
2019-02-10T00:22:31.827Z,101046.11
2019-02-10T00:23:08.065Z,101050.66
2019-02-10T00:23:44.244Z,101050.66
2019-02-10T00:24:20.551Z,101046.33
2019-02-10T00:24:56.594Z,101047.11
2019-02-10T00:25:32.604Z,101049.27
2019-02-10T00:26:08.739Z,101048.16
2019-02-10T00:26:44.866Z,101048.95
2019-02-10T00:27:20.977Z,101053.23
2019-02-10T00:27:57.211Z,101051.31
2019-02-10T00:28:33.281Z,101052.62
2019-02-10T00:29:09.373Z,101052.62
2019-02-10T00:29:45.543Z,101048.84
2019-02-10T00:30:21.749Z,101048.84
2019-02-10T00:30:57.834Z,101049.94
2019-02-10T00:31:33.910Z,101055.86
2019-02-10T00:32:10.042Z,101054.73
2019-02-10T00:32:46.209Z,101047.96
2019-02-10T00:33:22.292Z,101057.88
2019-02-10T00:33:58.513Z,101057.88
2019-02-10T00:34:34.597Z,101052.74
2019-02-10T00:35:10.768Z,101048.41
2019-02-10T00:35:46.877Z,101035.97
2019-02-10T00:36:23.143Z,101049.70
2019-02-10T00:36:59.422Z,101049.70
2019-02-10T00:37:35.601Z,101049.39
2019-02-10T00:38:11.650Z,101049.39
2019-02-10T00:38:47.866Z,101039.67
2019-02-10T00:39:24.028Z,101039.67
2019-02-10T00:40:00.255Z,101050.69
2019-02-10T00:40:36.468Z,101052.27
2019-02-10T00:41:12.755Z,101042.32
2019-02-10T00:41:48.944Z,101058.45
2019-02-10T00:42:25.038Z,101060.58
2019-02-10T00:43:01.341Z,101047.88
2019-02-10T00:43:37.606Z,101047.88
2019-02-10T00:44:13.847Z,101057.76
2019-02-10T00:44:50.095Z,101059.91
2019-02-10T00:45:26.189Z,101055.86
2019-02-10T00:46:02.372Z,101055.86
2019-02-10T00:46:38.571Z,101066.09
2019-02-10T00:47:14.832Z,101065.80
2019-02-10T00:47:50.979Z,101065.80
2019-02-10T00:48:27.237Z,101071.14
2019-02-10T00:49:03.576Z,101071.14
2019-02-10T00:49:39.635Z,101058.20
2019-02-10T00:50:15.789Z,101062.49
2019-02-10T00:50:51.916Z,101065.94
2019-02-10T00:51:27.999Z,101071.31
2019-02-10T00:52:04.171Z,101067.03
2019-02-10T00:52:40.243Z,101076.91
2019-02-10T00:53:16.324Z,101074.20
2019-02-10T00:53:52.406Z,101074.20
2019-02-10T00:54:28.532Z,101076.07
2019-02-10T00:55:04.707Z,101083.53
2019-02-10T00:55:40.891Z,101083.53
2019-02-10T00:56:17.006Z,101087.02
2019-02-10T00:56:53.153Z,101089.39
2019-02-10T00:57:29.227Z,101092.31
2019-02-10T00:58:05.434Z,101092.31
2019-02-10T00:58:41.562Z,101095.53
2019-02-10T00:59:17.832Z,101084.75
2019-02-10T00:59:53.891Z,101087.16
2019-02-10T01:00:30.117Z,101105.18
2019-02-10T01:01:06.319Z,101102.44
2019-02-10T01:01:42.424Z,101102.44
2019-02-10T01:02:18.706Z,101103.45
2019-02-10T01:02:54.864Z,101103.45
2019-02-10T01:03:31.163Z,101114.50
2019-02-10T01:04:07.615Z,101107.08
2019-02-10T01:04:43.948Z,101107.08
2019-02-10T01:05:20.208Z,101111.91
2019-02-10T01:05:56.474Z,101113.77
2019-02-10T01:06:40.940Z,101111.57
2019-02-10T01:07:10.628Z,101114.79
2019-02-10T01:07:46.792Z,101118.29
2019-02-10T01:08:23.121Z,101113.64
2019-02-10T01:08:59.587Z,101113.64
2019-02-10T01:09:35.725Z,101122.53
2019-02-10T01:10:12.059Z,101124.73
2019-02-10T01:10:48.282Z,101125.78
2019-02-10T01:11:24.474Z,101129.55
2019-02-10T01:12:00.771Z,101127.36
2019-02-10T01:12:36.983Z,101125.96
2019-02-10T01:13:13.148Z,101132.69
2019-02-10T01:13:49.261Z,101135.40
2019-02-10T01:14:25.407Z,101134.84
2019-02-10T01:15:01.665Z,101138.06
2019-02-10T01:15:37.868Z,101137.50
2019-02-10T01:16:14.088Z,101132.59
2019-02-10T01:16:50.242Z,101136.91
2019-02-10T01:17:26.566Z,101130.69
2019-02-10T01:18:02.779Z,101138.44
2019-02-10T01:18:38.951Z,101142.46
2019-02-10T01:19:15.113Z,101139.97
2019-02-10T01:19:51.445Z,101134.76
2019-02-10T01:20:27.791Z,101133.34
2019-02-10T01:21:04.217Z,101140.33
2019-02-10T01:21:41.744Z,101142.70
2019-02-10T01:22:17.975Z,101143.46
2019-02-10T01:22:54.414Z,101144.77
2019-02-10T01:23:30.716Z,101137.41
2019-02-10T01:24:07.086Z,101140.88
2019-02-10T01:24:43.234Z,101141.13
2019-02-10T01:25:19.650Z,101142.75
2019-02-10T01:25:55.739Z,101139.19
2019-02-10T01:26:31.875Z,101146.47
2019-02-10T01:27:08.362Z,101141.26
2019-02-10T01:27:44.679Z,101144.48
2019-02-10T01:28:20.840Z,101139.86
2019-02-10T01:28:57.004Z,101135.74
2019-02-10T01:29:33.107Z,101145.19
2019-02-10T01:30:11.372Z,101145.78
2019-02-10T01:30:47.689Z,101146.03
2019-02-10T01:31:23.903Z,101142.22
2019-02-10T01:32:00.129Z,101142.17
2019-02-10T01:32:36.274Z,101142.66
2019-02-10T01:33:12.485Z,101138.30
2019-02-10T01:33:48.668Z,101142.81
2019-02-10T01:34:24.916Z,101142.22
2019-02-10T01:35:01.044Z,101141.72
2019-02-10T01:35:37.521Z,101148.95
2019-02-10T01:36:13.977Z,101152.16
2019-02-10T01:36:50.188Z,101149.16
2019-02-10T01:37:26.470Z,101150.41
2019-02-10T01:38:02.596Z,101153.66
2019-02-10T01:38:38.880Z,101152.50
2019-02-10T01:39:22.548Z,101156.52
2019-02-10T01:39:58.745Z,101155.41
2019-02-10T01:40:34.838Z,101151.02
2019-02-10T01:41:10.841Z,101157.20
2019-02-10T01:41:47.024Z,101150.38
2019-02-10T01:42:23.115Z,101158.44
2019-02-10T01:42:59.356Z,101152.45
2019-02-10T01:43:35.761Z,101160.49
2019-02-10T01:44:11.877Z,101156.67
2019-02-10T01:44:48.026Z,101157.67
2019-02-10T01:45:24.426Z,101155.96
2019-02-10T01:46:00.569Z,101156.96
2019-02-10T01:46:36.742Z,101157.98
2019-02-10T01:47:12.825Z,101154.17
2019-02-10T01:47:48.964Z,101154.42
2019-02-10T01:48:25.086Z,101155.03
2019-02-10T01:49:01.295Z,101156.28
2019-02-10T01:49:37.548Z,101154.06
2019-02-10T01:50:14.057Z,101157.02
2019-02-10T01:50:50.311Z,101156.53
2019-02-10T01:51:26.522Z,101154.56
2019-02-10T01:52:02.611Z,101155.86
2019-02-10T01:52:38.882Z,101158.02
2019-02-10T01:53:15.010Z,101160.48
2019-02-10T01:53:51.037Z,101158.27
2019-02-10T01:54:27.107Z,101161.98
2019-02-10T01:55:03.285Z,101157.58
2019-02-10T01:55:39.340Z,101167.88
2019-02-10T01:56:15.385Z,101163.59
2019-02-10T01:56:51.675Z,101165.14
2019-02-10T01:57:27.904Z,101163.67
2019-02-10T01:58:04.022Z,101169.55
2019-02-10T01:58:40.184Z,101165.91
2019-02-10T01:59:16.299Z,101170.73
2019-02-10T01:59:52.531Z,101163.05
2019-02-10T02:00:28.709Z,101162.99
2019-02-10T02:01:04.789Z,101159.16
2019-02-10T02:01:41.054Z,101171.52
2019-02-10T02:02:17.225Z,101163.86
2019-02-10T02:02:53.351Z,101167.08
2019-02-10T02:03:29.518Z,101167.27
2019-02-10T02:04:05.623Z,101161.77
2019-02-10T02:04:41.796Z,101168.47
2019-02-10T02:05:17.959Z,101164.05
2019-02-10T02:05:54.334Z,101168.13
2019-02-10T02:06:30.370Z,101166.27
2019-02-10T02:07:06.622Z,101168.38
2019-02-10T02:07:42.947Z,101169.73
2019-02-10T02:08:19.102Z,101166.70
2019-02-10T02:08:55.169Z,101164.17
2019-02-10T02:09:31.472Z,101163.55
2019-02-10T02:10:08.559Z,101170.75
2019-02-10T02:10:44.650Z,101164.13
2019-02-10T02:11:20.753Z,101158.08
2019-02-10T02:11:56.882Z,101165.05
2019-02-10T02:12:33.121Z,101161.47
2019-02-10T02:13:09.233Z,101164.43
2019-02-10T02:13:45.364Z,101159.80
2019-02-10T02:14:21.485Z,101160.53
2019-02-10T02:14:57.896Z,101155.03
2019-02-10T02:15:34.181Z,101161.23
2019-02-10T02:16:10.417Z,101158.77
2019-02-10T02:16:46.604Z,101161.11
2019-02-10T02:17:22.910Z,101162.15
2019-02-10T02:17:59.131Z,101160.23
2019-02-10T02:18:35.611Z,101163.45
2019-02-10T02:19:11.712Z,101164.55
2019-02-10T02:19:48.104Z,101163.97
2019-02-10T02:20:24.144Z,101160.72
2019-02-10T02:21:00.408Z,101164.21
2019-02-10T02:21:36.489Z,101163.72
2019-02-10T02:22:12.762Z,101160.13
2019-02-10T02:22:49.023Z,101164.14
2019-02-10T02:23:25.362Z,101158.45
2019-02-10T02:24:01.476Z,101159.50
2019-02-10T02:24:37.617Z,101153.99
2019-02-10T02:25:14.514Z,101155.81
2019-02-10T02:25:50.529Z,101158.14
2019-02-10T02:26:26.656Z,101150.23
2019-02-10T02:27:02.856Z,101153.75
2019-02-10T02:27:39.292Z,101150.12
2019-02-10T02:28:15.506Z,101151.66
2019-02-10T02:28:51.558Z,101151.84
2019-02-10T02:29:27.750Z,101150.66
2019-02-10T02:30:03.983Z,101143.92
2019-02-10T02:30:40.687Z,101149.84
2019-02-10T02:31:16.861Z,101149.56
2019-02-10T02:31:53.147Z,101148.31
2019-02-10T02:32:29.410Z,101156.41
2019-02-10T02:33:06.886Z,101149.43
2019-02-10T02:33:43.132Z,101148.56
2019-02-10T02:34:19.325Z,101145.53
2019-02-10T02:34:55.430Z,101150.09
2019-02-10T02:35:31.525Z,101152.53
2019-02-10T02:36:07.634Z,101151.45
2019-02-10T02:36:43.777Z,101155.05
2019-02-10T02:37:20.074Z,101157.41
2019-02-10T02:37:56.349Z,101152.78
2019-02-10T02:38:32.469Z,101154.06
2019-02-10T02:39:08.855Z,101150.09
2019-02-10T02:39:45.025Z,101157.62
2019-02-10T02:40:21.317Z,101159.47
2019-02-10T02:40:57.532Z,101152.77
2019-02-10T02:41:33.809Z,101157.93
2019-02-10T02:42:09.939Z,101156.73
2019-02-10T02:42:46.060Z,101155.70
2019-02-10T02:43:22.379Z,101159.46
2019-02-10T02:43:58.648Z,101161.14
2019-02-10T02:44:35.402Z,101167.14
2019-02-10T02:45:12.873Z,101164.97
2019-02-10T02:45:48.988Z,101157.61
2019-02-10T02:46:25.140Z,101163.66
2019-02-10T02:47:01.231Z,101163.97
2019-02-10T02:47:37.459Z,101155.15
2019-02-10T02:48:13.503Z,101170.98
2019-02-10T02:48:49.570Z,101172.58
2019-02-10T02:49:25.841Z,101161.88
2019-02-10T02:50:02.187Z,101169.55
2019-02-10T02:50:38.333Z,101170.35
2019-02-10T02:51:14.509Z,101168.30
2019-02-10T02:51:50.848Z,101167.20
2019-02-10T02:52:27.074Z,101166.38
2019-02-10T02:53:03.246Z,101168.50
2019-02-10T02:53:39.369Z,101164.10
2019-02-10T02:54:15.557Z,101167.94
2019-02-10T02:54:51.757Z,101162.42
2019-02-10T02:55:28.001Z,101164.03
2019-02-10T02:56:04.158Z,101163.64
2019-02-10T02:56:40.401Z,101162.21
2019-02-10T02:57:16.547Z,101162.41
2019-02-10T02:57:52.729Z,101164.74
2019-02-10T02:58:28.978Z,101160.06
2019-02-10T02:59:05.173Z,101162.70
2019-02-10T02:59:41.430Z,101161.75
2019-02-10T03:00:17.703Z,101161.12
2019-02-10T03:00:53.978Z,101161.36
2019-02-10T03:01:30.108Z,101162.58
2019-02-10T03:02:06.413Z,101161.14
2019-02-10T03:02:42.612Z,101161.34
2019-02-10T03:03:18.692Z,101168.38
2019-02-10T03:03:54.785Z,101157.66
2019-02-10T03:04:31.027Z,101165.27
2019-02-10T03:05:07.902Z,101156.70
2019-02-10T03:05:43.954Z,101161.19
2019-02-10T03:06:20.072Z,101158.61
2019-02-10T03:06:56.129Z,101161.58
2019-02-10T03:07:32.349Z,101161.34
2019-02-10T03:08:08.459Z,101164.05
2019-02-10T03:08:44.814Z,101162.37
2019-02-10T03:09:20.989Z,101164.22
2019-02-10T03:09:57.192Z,101164.62
2019-02-10T03:10:33.262Z,101167.20
2019-02-10T03:11:09.511Z,101163.36
2019-02-10T03:11:45.784Z,101167.92
2019-02-10T03:12:21.897Z,101167.28
2019-02-10T03:12:58.134Z,101168.36
2019-02-10T03:13:34.345Z,101163.10
2019-02-10T03:14:10.534Z,101168.63
2019-02-10T03:14:46.865Z,101168.39
2019-02-10T03:15:22.895Z,101165.34
2019-02-10T03:15:59.237Z,101166.31
2019-02-10T03:16:35.349Z,101166.39
2019-02-10T03:17:11.599Z,101163.66
2019-02-10T03:17:47.879Z,101177.92
2019-02-10T03:18:24.060Z,101173.20
2019-02-10T03:19:00.291Z,101172.32
2019-02-10T03:19:36.378Z,101169.03
2019-02-10T03:20:12.748Z,101167.35
2019-02-10T03:20:48.960Z,101168.55
2019-02-10T03:21:25.122Z,101172.32
2019-02-10T03:22:01.212Z,101167.35
2019-02-10T03:22:37.515Z,101178.25
2019-02-10T03:23:13.622Z,101179.05
2019-02-10T03:23:49.746Z,101169.44
2019-02-10T03:24:25.971Z,101172.16
2019-02-10T03:25:02.211Z,101176.12
2019-02-10T03:25:38.440Z,101171.15
2019-02-10T03:26:14.614Z,101175.39
2019-02-10T03:26:50.896Z,101170.11
2019-02-10T03:27:27.050Z,101175.55
2019-02-10T03:28:03.254Z,101177.80
2019-02-10T03:28:39.427Z,101171.88
2019-02-10T03:29:15.700Z,101177.00
2019-02-10T03:29:51.864Z,101173.20
2019-02-10T03:30:28.149Z,101175.05
2019-02-10T03:31:04.411Z,101173.07
2019-02-10T03:31:40.759Z,101175.47
2019-02-10T03:32:16.997Z,101177.31
2019-02-10T03:32:53.192Z,101173.95
2019-02-10T03:33:29.438Z,101179.00
2019-02-10T03:34:05.573Z,101177.23
2019-02-10T03:34:41.935Z,101177.47
2019-02-10T03:35:20.788Z,101177.58
2019-02-10T03:35:57.027Z,101174.00
2019-02-10T03:36:33.275Z,101178.56
2019-02-10T03:37:09.540Z,101174.63
2019-02-10T03:37:45.723Z,101170.22
2019-02-10T03:38:21.791Z,101171.50
2019-02-10T03:38:57.818Z,101174.14
2019-02-10T03:39:34.053Z,101171.41
2019-02-10T03:40:10.464Z,101176.22
2019-02-10T03:40:46.618Z,101169.88
2019-02-10T03:41:22.822Z,101173.64
2019-02-10T03:41:58.935Z,101168.14
2019-02-10T03:42:35.001Z,101172.94
2019-02-10T03:43:11.199Z,101171.98
2019-02-10T03:43:47.346Z,101169.16
2019-02-10T03:44:23.674Z,101172.13
2019-02-10T03:44:59.755Z,101168.69
2019-02-10T03:45:36.045Z,101169.16
2019-02-10T03:46:12.150Z,101164.12
2019-02-10T03:46:48.333Z,101161.63
2019-02-10T03:47:24.483Z,101160.98
2019-02-10T03:48:00.631Z,101162.27
2019-02-10T03:48:36.710Z,101164.05
2019-02-10T03:49:12.943Z,101156.82
2019-02-10T03:49:49.121Z,101155.70
2019-02-10T03:50:25.202Z,101153.68
2019-02-10T03:51:01.400Z,101161.30
2019-02-10T03:51:37.551Z,101158.96
2019-02-10T03:52:13.598Z,101161.59
2019-02-10T03:52:49.673Z,101153.59
2019-02-10T03:53:25.933Z,101157.30
2019-02-10T03:54:02.078Z,101160.44
2019-02-10T03:54:38.271Z,101163.72
2019-02-10T03:55:14.452Z,101154.27
2019-02-10T03:55:50.552Z,101164.28
2019-02-10T03:56:26.667Z,101155.22
2019-02-10T03:57:02.772Z,101160.11
2019-02-10T03:57:38.859Z,101153.77
2019-02-10T03:58:14.945Z,101153.68
2019-02-10T03:58:51.167Z,101154.72
2019-02-10T03:59:27.255Z,101150.55
2019-02-10T04:00:03.365Z,101153.74
2019-02-10T04:00:39.738Z,101149.09
2019-02-10T04:01:15.862Z,101153.66
2019-02-10T04:01:52.037Z,101152.77
2019-02-10T04:02:28.201Z,101150.04
2019-02-10T04:03:04.385Z,101155.67
2019-02-10T04:03:40.519Z,101149.23
2019-02-10T04:04:16.789Z,101152.14
2019-02-10T04:04:52.975Z,101143.90
2019-02-10T04:05:29.122Z,101150.24
2019-02-10T04:06:05.327Z,101148.87
2019-02-10T04:06:41.373Z,101150.17
2019-02-10T04:07:17.546Z,101147.69
2019-02-10T04:07:53.672Z,101152.17
2019-02-10T04:08:29.983Z,101147.05
2019-02-10T04:09:07.153Z,101147.70
2019-02-10T04:09:43.418Z,101156.35
2019-02-10T04:10:19.577Z,101149.13
2019-02-10T04:10:55.646Z,101146.16
2019-02-10T04:11:31.640Z,101141.75
2019-02-10T04:12:07.933Z,101145.13
2019-02-10T04:12:44.122Z,101145.28
2019-02-10T04:13:20.417Z,101145.67
2019-02-10T04:13:56.630Z,101138.29
2019-02-10T04:14:32.689Z,101144.78
2019-02-10T04:15:09.251Z,101136.78
2019-02-10T04:15:45.329Z,101139.42
2019-02-10T04:16:21.465Z,101136.45
2019-02-10T04:16:57.609Z,101137.73
2019-02-10T04:17:33.745Z,101135.48
2019-02-10T04:18:09.862Z,101136.61
2019-02-10T04:18:45.992Z,101135.95
2019-02-10T04:19:22.261Z,101133.14
2019-02-10T04:19:58.562Z,101127.59
2019-02-10T04:20:34.780Z,101133.80
2019-02-10T04:21:10.931Z,101130.33
2019-02-10T04:21:47.125Z,101128.31
2019-02-10T04:22:23.159Z,101131.28
2019-02-10T04:22:59.205Z,101125.34
2019-02-10T04:23:35.331Z,101132.08
2019-02-10T04:24:11.434Z,101123.09
2019-02-10T04:24:47.529Z,101123.33
2019-02-10T04:25:23.855Z,101119.80
2019-02-10T04:26:00.167Z,101124.45
2019-02-10T04:26:36.199Z,101120.84
2019-02-10T04:27:12.377Z,101118.53
2019-02-10T04:27:48.569Z,101116.52
2019-02-10T04:28:24.682Z,101121.49
2019-02-10T04:29:01.016Z,101113.22
2019-02-10T04:29:37.249Z,101115.89
2019-02-10T04:30:13.570Z,101113.16
2019-02-10T04:30:50.032Z,101113.40
2019-02-10T04:31:26.223Z,101112.04
2019-02-10T04:32:02.501Z,101109.31
2019-02-10T04:32:38.718Z,101111.66
2019-02-10T04:33:14.851Z,101109.81
2019-02-10T04:33:51.049Z,101105.67
2019-02-10T04:34:27.153Z,101105.02
2019-02-10T04:35:03.390Z,101111.12
2019-02-10T04:35:39.670Z,101109.58
2019-02-10T04:36:15.805Z,101105.72
2019-02-10T04:36:51.908Z,101101.55
2019-02-10T04:37:27.952Z,101101.96
2019-02-10T04:38:03.966Z,101094.16
2019-02-10T04:38:40.132Z,101098.08
2019-02-10T04:39:16.233Z,101096.71
2019-02-10T04:39:52.422Z,101091.02
2019-02-10T04:40:28.673Z,101093.09
2019-02-10T04:41:04.794Z,101082.08
2019-02-10T04:41:40.937Z,101085.28
2019-02-10T04:42:16.989Z,101084.77
2019-02-10T04:42:53.015Z,101089.42
2019-02-10T04:43:29.291Z,101085.15
2019-02-10T04:44:05.459Z,101088.85
2019-02-10T04:44:41.609Z,101083.63
2019-02-10T04:45:17.814Z,101081.05
2019-02-10T04:45:53.957Z,101082.82
2019-02-10T04:46:30.174Z,101086.49
2019-02-10T04:47:06.343Z,101084.23
2019-02-10T04:47:42.557Z,101083.34
2019-02-10T04:48:18.689Z,101078.36
2019-02-10T04:48:54.905Z,101076.36
2019-02-10T04:49:31.027Z,101076.36
2019-02-10T04:50:07.144Z,101078.20
2019-02-10T04:50:43.273Z,101074.15
2019-02-10T04:51:19.405Z,101075.98
2019-02-10T04:51:55.729Z,101071.13
2019-02-10T04:52:31.883Z,101073.20
2019-02-10T04:53:08.084Z,101069.51
2019-02-10T04:53:44.103Z,101066.12
2019-02-10T04:54:20.277Z,101061.13
2019-02-10T04:54:56.543Z,101062.33
2019-02-10T04:55:32.789Z,101068.34
2019-02-10T04:56:13.463Z,101063.69
2019-02-10T04:56:49.740Z,101063.29
2019-02-10T04:57:25.807Z,101060.80
2019-02-10T04:58:01.899Z,101064.35
2019-02-10T04:58:38.015Z,101060.19
2019-02-10T04:59:14.116Z,101057.92
2019-02-10T04:59:50.263Z,101059.30
2019-02-10T05:00:26.458Z,101055.90
2019-02-10T05:01:02.730Z,101058.89
2019-02-10T05:01:38.982Z,101052.30
2019-02-10T05:02:15.176Z,101057.09
2019-02-10T05:02:51.327Z,101047.91
2019-02-10T05:03:27.373Z,101056.90
2019-02-10T05:04:03.509Z,101056.23
2019-02-10T05:04:39.915Z,101059.63
2019-02-10T05:05:15.980Z,101045.95
2019-02-10T05:05:52.085Z,101045.05
2019-02-10T05:06:28.360Z,101044.42
2019-02-10T05:07:04.443Z,101037.86
2019-02-10T05:07:40.490Z,101043.38
2019-02-10T05:08:16.597Z,101043.61
2019-02-10T05:08:52.737Z,101048.84
2019-02-10T05:09:29.012Z,101042.52
2019-02-10T05:10:05.244Z,101042.69
2019-02-10T05:10:41.448Z,101037.23
2019-02-10T05:11:17.659Z,101042.69
2019-02-10T05:11:53.821Z,101039.95
2019-02-10T05:12:29.917Z,101037.55
2019-02-10T05:13:06.153Z,101045.28
2019-02-10T05:13:42.239Z,101038.29
2019-02-10T05:14:18.321Z,101039.09
2019-02-10T05:14:54.417Z,101033.63
2019-02-10T05:15:30.722Z,101038.85
2019-02-10T05:16:06.784Z,101033.56
2019-02-10T05:16:44.895Z,101025.05
2019-02-10T05:17:20.856Z,101028.10
2019-02-10T05:17:57.001Z,101035.16
2019-02-10T05:18:33.130Z,101029.94
2019-02-10T05:19:09.243Z,101031.53
2019-02-10T05:19:45.501Z,101031.77
2019-02-10T05:20:21.771Z,101024.05
2019-02-10T05:20:57.941Z,101024.28
2019-02-10T05:21:33.948Z,101023.81
2019-02-10T05:22:10.082Z,101024.38
2019-02-10T05:22:46.239Z,101026.08
2019-02-10T05:23:22.457Z,101021.28
2019-02-10T05:24:03.689Z,101020.38
2019-02-10T05:24:36.575Z,101023.58
2019-02-10T05:25:12.757Z,101029.27
2019-02-10T05:25:48.847Z,101025.64
2019-02-10T05:26:25.122Z,101034.80
2019-02-10T05:27:01.348Z,101030.70
2019-02-10T05:27:37.575Z,101028.66
2019-02-10T05:28:13.726Z,101024.58
2019-02-10T05:28:49.987Z,101023.08
2019-02-10T05:29:25.978Z,101018.58
2019-02-10T05:30:02.180Z,101027.61
2019-02-10T05:30:38.469Z,101023.23
2019-02-10T05:31:14.923Z,101028.00
2019-02-10T05:31:51.246Z,101023.20
2019-02-10T05:32:27.422Z,101022.41
2019-02-10T05:33:03.520Z,101021.80
2019-02-10T05:33:39.756Z,101017.47
2019-02-10T05:34:15.951Z,101016.58
2019-02-10T05:34:52.023Z,101017.77
2019-02-10T05:35:28.127Z,101017.47
2019-02-10T05:36:04.364Z,101016.71
2019-02-10T05:36:40.422Z,101019.11
2019-02-10T05:37:16.680Z,101017.31
2019-02-10T05:37:52.959Z,101018.02
2019-02-10T05:38:29.072Z,101009.59
2019-02-10T05:39:06.314Z,101010.03
2019-02-10T05:39:42.404Z,101017.65
2019-02-10T05:40:18.524Z,101012.48
2019-02-10T05:40:54.820Z,101012.02
2019-02-10T05:41:31.071Z,101010.45
2019-02-10T05:42:07.180Z,101007.26
2019-02-10T05:42:43.272Z,101007.92
2019-02-10T05:43:19.514Z,101003.03
2019-02-10T05:43:55.765Z,101003.83
2019-02-10T05:44:31.865Z,101006.13
2019-02-10T05:45:08.523Z,101001.14
2019-02-10T05:45:44.664Z,101001.10
2019-02-10T05:46:20.782Z,101005.99
2019-02-10T05:46:56.863Z,100998.07
2019-02-10T05:47:32.928Z,100994.21
2019-02-10T05:48:09.061Z,100992.95
2019-02-10T05:48:45.381Z,100989.14
2019-02-10T05:49:21.502Z,100988.72
2019-02-10T05:49:57.744Z,100992.34
2019-02-10T05:50:33.936Z,100985.69
2019-02-10T05:51:09.957Z,100992.67
2019-02-10T05:51:46.142Z,100988.48
2019-02-10T05:52:22.413Z,100980.96
2019-02-10T05:52:58.553Z,100985.52
2019-02-10T05:53:34.808Z,100982.80
2019-02-10T05:54:10.912Z,100978.14
2019-02-10T05:54:47.092Z,100983.42
2019-02-10T05:55:23.212Z,100981.09
2019-02-10T05:55:59.325Z,100972.58
2019-02-10T05:56:35.562Z,100970.66
2019-02-10T05:57:11.773Z,100972.16
2019-02-10T05:57:47.844Z,100969.89
2019-02-10T05:58:23.895Z,100973.66
2019-02-10T05:59:00.254Z,100968.59
2019-02-10T05:59:36.481Z,100973.32
2019-02-10T06:00:12.691Z,100973.63
2019-02-10T06:00:49.030Z,100975.55
2019-02-10T06:02:32.452Z,100970.23
2019-02-10T06:03:08.720Z,100971.83
2019-02-10T06:03:44.812Z,100965.70
2019-02-10T06:04:20.986Z,100964.23
2019-02-10T06:04:58.286Z,100963.91
2019-02-10T06:05:34.845Z,100959.71
2019-02-10T06:06:10.977Z,100960.74
2019-02-10T06:06:47.284Z,100958.73
2019-02-10T06:07:23.572Z,100955.05
2019-02-10T06:07:59.828Z,100954.35
2019-02-10T06:08:35.936Z,100954.35
2019-02-10T06:09:12.085Z,100946.80
2019-02-10T06:09:48.354Z,100947.70
2019-02-10T06:10:24.527Z,100946.57
2019-02-10T06:11:00.771Z,100945.44
2019-02-10T06:11:36.946Z,100952.27
2019-02-10T06:12:13.035Z,100943.84
2019-02-10T06:12:49.147Z,100940.19
2019-02-10T06:13:25.308Z,100944.88
2019-02-10T06:14:01.628Z,100945.00
2019-02-10T06:14:37.670Z,100935.02
2019-02-10T06:15:13.705Z,100938.45
2019-02-10T06:15:49.783Z,100942.77
2019-02-10T06:16:25.899Z,100938.45
2019-02-10T06:17:02.124Z,100943.00
2019-02-10T06:17:38.371Z,100937.31
2019-02-10T06:18:14.639Z,100934.02
2019-02-10T06:18:50.725Z,100939.81
2019-02-10T06:19:26.906Z,100938.68
2019-02-10T06:20:03.218Z,100941.41
2019-02-10T06:20:39.259Z,100936.84
2019-02-10T06:21:15.497Z,100940.94
2019-02-10T06:21:51.652Z,100936.16
2019-02-10T06:22:27.873Z,100938.78
2019-02-10T06:23:03.996Z,100936.84
2019-02-10T06:23:40.138Z,100935.25
2019-02-10T06:24:16.699Z,100935.61
2019-02-10T06:24:52.862Z,100927.12
2019-02-10T06:25:29.098Z,100925.99
2019-02-10T06:26:05.271Z,100929.02
2019-02-10T06:26:41.512Z,100923.44
2019-02-10T06:27:17.625Z,100928.66
2019-02-10T06:27:53.934Z,100927.30
2019-02-10T06:28:30.243Z,100919.91
2019-02-10T06:29:06.334Z,100918.41
2019-02-10T06:29:42.567Z,100921.61
2019-02-10T06:30:18.738Z,100921.58
2019-02-10T06:30:54.901Z,100920.02
2019-02-10T06:31:30.925Z,100918.64
2019-02-10T06:32:07.232Z,100920.14
2019-02-10T06:32:43.453Z,100921.84
2019-02-10T06:33:19.579Z,100920.70
2019-02-10T06:33:55.621Z,100913.88
2019-02-10T06:34:31.910Z,100918.41
2019-02-10T06:35:08.460Z,100917.28
2019-02-10T06:35:44.570Z,100911.59
2019-02-10T06:36:20.707Z,100906.47
2019-02-10T06:36:56.878Z,100903.51
2019-02-10T06:37:33.216Z,100906.59
2019-02-10T06:38:09.329Z,100903.64
2019-02-10T06:38:45.426Z,100905.93
2019-02-10T06:39:21.612Z,100901.61
2019-02-10T06:39:57.828Z,100899.91
2019-02-10T06:40:33.951Z,100905.03
2019-02-10T06:41:10.130Z,100901.27
2019-02-10T06:41:46.261Z,100897.90
2019-02-10T06:42:22.516Z,100900.94
2019-02-10T06:42:58.713Z,100898.47
2019-02-10T06:43:35.014Z,100899.39
2019-02-10T06:44:11.172Z,100895.53
2019-02-10T06:44:47.317Z,100898.03
2019-02-10T06:45:23.393Z,100897.80
2019-02-10T06:45:59.442Z,100895.97
2019-02-10T06:46:35.509Z,100895.73
2019-02-10T06:47:11.662Z,100894.45
2019-02-10T06:47:47.886Z,100892.62
2019-02-10T06:48:24.183Z,100898.41
2019-02-10T06:49:00.289Z,100890.44
2019-02-10T06:49:36.369Z,100894.75
2019-02-10T06:50:13.230Z,100888.17
2019-02-10T06:50:49.344Z,100884.87
2019-02-10T06:51:25.515Z,100883.38
2019-02-10T06:52:01.563Z,100881.31
2019-02-10T06:52:37.618Z,100876.09
2019-02-10T06:53:13.916Z,100880.73
2019-02-10T06:53:52.835Z,100880.39
2019-02-10T06:54:29.110Z,100873.98
2019-02-10T06:55:05.444Z,100873.62